createdAt,value
2023-01-19T00:10:47.825Z,19.41
2023-01-19T00:30:47.833Z,19.41
2023-01-19T00:50:47.802Z,19.41
2023-01-19T01:10:47.821Z,19.41
2023-01-19T01:30:47.829Z,19.41
2023-01-19T01:50:47.815Z,19.4
2023-01-19T02:10:47.826Z,19.4
2023-01-19T03:10:47.304Z,19.4
2023-01-19T03:30:47.890Z,19.4
2023-01-19T03:50:47.865Z,19.4
2023-01-19T04:10:47.849Z,19.4
2023-01-19T04:30:47.723Z,19.4
2023-01-19T04:50:47.345Z,19.4
2023-01-19T05:10:47.900Z,19.4
2023-01-19T05:30:47.904Z,19.4
2023-01-19T05:50:47.886Z,19.4
2023-01-19T06:10:47.885Z,19.41
2023-01-19T06:50:47.924Z,19.41
2023-01-19T07:11:21.855Z,19.41
2023-01-19T07:50:47.390Z,19.42
2023-01-19T08:10:47.907Z,19.43
2023-01-19T08:30:47.984Z,19.43
2023-01-19T09:10:47.780Z,19.48
2023-01-19T09:50:47.168Z,19.55
2023-01-19T10:30:48.018Z,19.58
2023-01-19T10:50:48.002Z,19.62
2023-01-19T11:10:49.285Z,19.65
2023-01-19T11:30:47.223Z,19.67
2023-01-19T11:50:47.959Z,19.68
2023-01-19T12:10:47.991Z,19.7
2023-01-19T12:30:48.004Z,19.72
2023-01-19T12:50:47.455Z,19.73
2023-01-19T13:30:48.196Z,19.75
2023-01-19T13:50:47.998Z,19.75
2023-01-19T14:10:47.467Z,19.75
2023-01-19T14:30:47.577Z,19.75
2023-01-19T14:51:01.879Z,19.74
2023-01-19T15:10:48.050Z,19.74
2023-01-19T15:30:48.050Z,19.74
2023-01-19T15:50:47.921Z,19.73
2023-01-19T16:10:48.013Z,19.72
2023-01-19T16:30:47.276Z,19.71
2023-01-19T16:50:48.014Z,19.71
2023-01-19T17:30:48.134Z,19.7
2023-01-19T18:10:47.555Z,19.68
2023-01-19T18:30:48.133Z,19.68
2023-01-19T18:50:48.041Z,19.68
2023-01-19T19:10:48.050Z,19.67
2023-01-19T19:30:48.218Z,19.67
2023-01-19T19:50:48.063Z,19.67
2023-01-19T20:30:47.358Z,19.67
2023-01-19T20:50:48.068Z,19.67
2023-01-19T21:30:47.613Z,19.66
2023-01-19T21:50:48.065Z,19.66
2023-01-19T22:10:48.078Z,19.66
2023-01-19T22:30:48.130Z,19.65
2023-01-19T22:50:48.013Z,19.65
2023-01-19T23:10:48.082Z,19.64
2023-01-19T23:30:48.186Z,19.64
2023-01-19T23:50:48.079Z,19.64
